Terminal Aerodrome Forecast
Issued by NWS

Home | Current Version | Previous Version | Text Only | Print | Product List | Glossary On
Versions: 1 2 3 4 5 6 7 8 9 10 11 12 13 14 15 16 17 18 19 20 21 22 23 24 25 26 27 28 29 30 31 32 33
000
FTUS41 KAKQ 230557 RRA
TAFPHF
TAF
KPHF 230557Z 2306/2406 05005KT 2SM -SHRA BR OVC003
      TEMPO 2306/2308 1SM -SHRA BR OVC002
     FM230800 07011KT 1SM SHRA BR OVC003
     FM231100 08014G22KT 2SM -SHRA BR OVC003
     FM231500 13008KT 3SM -SHRA BR OVC003
     FM231700 19007KT P6SM OVC006
     FM232000 30005KT P6SM BKN015
     FM240300 32005KT P6SM OVC004=

USA.gov is the U.S. government's official web portal to all federal, state and local government web resources and services.